sensor_id;sensor_type;location;lat;lon;timestamp;pressure;altitude;pressure_sealevel;temperature;humidity
47809;BME280;33573;38.790;-77.084;2024-01-10T00:00:34;99000.05;;;18.30;30.75
47809;BME280;33573;38.790;-77.084;2024-01-10T00:03:04;99017.89;;;18.32;30.70
47809;BME280;33573;38.790;-77.084;2024-01-10T00:05:25;98930.72;;;18.13;30.64
47809;BME280;33573;38.790;-77.084;2024-01-10T00:07:51;98933.96;;;18.39;30.62
47809;BME280;33573;38.790;-77.084;2024-01-10T00:10:20;98921.22;;;18.21;30.66
47809;BME280;33573;38.790;-77.084;2024-01-10T00:12:41;98936.65;;;18.45;30.55
47809;BME280;33573;38.790;-77.084;2024-01-10T00:15:07;99020.58;;;18.21;30.55
47809;BME280;33573;38.790;-77.084;2024-01-10T00:17:27;99113.86;;;18.39;30.70
47809;BME280;33573;38.790;-77.084;2024-01-10T00:19:58;99034.85;;;18.37;30.73
47809;BME280;33573;38.790;-77.084;2024-01-10T00:22:18;98992.08;;;18.32;30.77
47809;BME280;33573;38.790;-77.084;2024-01-10T00:24:53;98994.69;;;18.08;30.80
47809;BME280;33573;38.790;-77.084;2024-01-10T00:27:15;98961.48;;;18.31;30.76
47809;BME280;33573;38.790;-77.084;2024-01-10T00:29:40;98941.30;;;18.26;30.76
47809;BME280;33573;38.790;-77.084;2024-01-10T00:32:05;98903.86;;;18.21;30.77
47809;BME280;33573;38.790;-77.084;2024-01-10T00:34:30;98866.40;;;18.04;30.71
47809;BME280;33573;38.790;-77.084;2024-01-10T00:36:51;98840.18;;;18.01;30.83
47809;BME280;33573;38.790;-77.084;2024-01-10T00:39:16;98848.21;;;18.34;30.66
47809;BME280;33573;38.790;-77.084;2024-01-10T00:41:46;98849.39;;;18.18;30.69
47809;BME280;33573;38.790;-77.084;2024-01-10T00:44:12;98851.54;;;18.32;30.83
47809;BME280;33573;38.790;-77.084;2024-01-10T00:46:37;98849.23;;;18.50;30.37
47809;BME280;33573;38.790;-77.084;2024-01-10T00:48:58;98842.89;;;18.66;30.37
47809;BME280;33573;38.790;-77.084;2024-01-10T00:51:28;98844.43;;;18.17;30.35
47809;BME280;33573;38.790;-77.084;2024-01-10T00:53:58;98835.06;;;18.16;30.40
47809;BME280;33573;38.790;-77.084;2024-01-10T00:56:20;98805.38;;;18.46;30.29
47809;BME280;33573;38.790;-77.084;2024-01-10T00:58:40;98787.33;;;18.71;30.23
47809;BME280;33573;38.790;-77.084;2024-01-10T01:01:14;98770.42;;;18.78;30.12
47809;BME280;33573;38.790;-77.084;2024-01-10T01:03:36;98740.45;;;18.21;30.30
47809;BME280;33573;38.790;-77.084;2024-01-10T01:08:31;98750.63;;;18.26;30.15
47809;BME280;33573;38.790;-77.084;2024-01-10T01:10:53;98701.69;;;18.71;30.16
47809;BME280;33573;38.790;-77.084;2024-01-10T01:13:18;98682.01;;;18.75;30.14
47809;BME280;33573;38.790;-77.084;2024-01-10T01:15:48;98657.97;;;18.83;29.98
47809;BME280;33573;38.790;-77.084;2024-01-10T01:18:09;98617.61;;;18.46;30.35
47809;BME280;33573;38.790;-77.084;2024-01-10T01:20:34;98591.64;;;18.62;30.43
47809;BME280;33573;38.790;-77.084;2024-01-10T01:23:04;98519.42;;;18.80;30.23
47809;BME280;33573;38.790;-77.084;2024-01-10T01:25:29;98524.46;;;18.77;30.25
47809;BME280;33573;38.790;-77.084;2024-01-10T01:27:51;98586.85;;;18.64;30.16
47809;BME280;33573;38.790;-77.084;2024-01-10T01:30:23;98607.09;;;18.30;30.26
47809;BME280;33573;38.790;-77.084;2024-01-10T01:32:40;98612.60;;;18.76;30.28
47809;BME280;33573;38.790;-77.084;2024-01-10T01:35:09;98624.79;;;18.59;30.08
47809;BME280;33573;38.790;-77.084;2024-01-10T01:37:36;98599.90;;;18.29;30.26
47809;BME280;33573;38.790;-77.084;2024-01-10T01:40:00;98547.53;;;18.57;30.16
47809;BME280;33573;38.790;-77.084;2024-01-10T01:42:18;98508.32;;;18.60;30.10
47809;BME280;33573;38.790;-77.084;2024-01-10T01:44:50;98525.99;;;18.62;30.11
47809;BME280;33573;38.790;-77.084;2024-01-10T01:47:12;98480.14;;;18.89;30.02
47809;BME280;33573;38.790;-77.084;2024-01-10T01:49:34;98488.43;;;18.85;30.06
47809;BME280;33573;38.790;-77.084;2024-01-10T01:52:01;98496.08;;;18.65;30.09
47809;BME280;33573;38.790;-77.084;2024-01-10T01:54:34;98483.38;;;18.63;30.20
47809;BME280;33573;38.790;-77.084;2024-01-10T01:57:00;98440.29;;;18.64;30.55
47809;BME280;33573;38.790;-77.084;2024-01-10T01:59:30;98476.31;;;18.57;30.17
47809;BME280;33573;38.790;-77.084;2024-01-10T02:01:48;98468.47;;;18.72;30.18
47809;BME280;33573;38.790;-77.084;2024-01-10T02:04:13;98465.21;;;18.56;30.11
47809;BME280;33573;38.790;-77.084;2024-01-10T02:06:34;98483.13;;;18.54;30.12
47809;BME280;33573;38.790;-77.084;2024-01-10T02:09:00;98477.92;;;18.71;30.18
47809;BME280;33573;38.790;-77.084;2024-01-10T02:11:26;98473.55;;;18.72;30.19
47809;BME280;33573;38.790;-77.084;2024-01-10T02:13:49;98456.66;;;18.82;30.06
47809;BME280;33573;38.790;-77.084;2024-01-10T02:18:40;98442.96;;;18.46;30.22
47809;BME280;33573;38.790;-77.084;2024-01-10T02:21:14;98451.96;;;18.62;30.30
47809;BME280;33573;38.790;-77.084;2024-01-10T02:23:34;98453.24;;;18.72;30.19
47809;BME280;33573;38.790;-77.084;2024-01-10T02:26:03;98447.42;;;18.67;30.30
47809;BME280;33573;38.790;-77.084;2024-01-10T02:28:30;98444.33;;;18.74;30.24
47809;BME280;33573;38.790;-77.084;2024-01-10T02:30:55;98447.94;;;18.86;30.52
47809;BME280;33573;38.790;-77.084;2024-01-10T02:33:12;98411.07;;;18.84;30.56
47809;BME280;33573;38.790;-77.084;2024-01-10T02:35:46;98416.69;;;18.56;30.64
47809;BME280;33573;38.790;-77.084;2024-01-10T02:40:29;98383.06;;;18.72;30.76
47809;BME280;33573;38.790;-77.084;2024-01-10T02:43:03;98338.23;;;18.30;30.66
47809;BME280;33573;38.790;-77.084;2024-01-10T02:45:23;98319.20;;;18.71;30.66
47809;BME280;33573;38.790;-77.084;2024-01-10T02:47:51;98308.34;;;18.21;30.74
47809;BME280;33573;38.790;-77.084;2024-01-10T02:50:19;98315.59;;;18.60;30.83
47809;BME280;33573;38.790;-77.084;2024-01-10T02:52:36;98311.57;;;18.58;30.87
47809;BME280;33573;38.790;-77.084;2024-01-10T02:55:07;98330.98;;;18.35;30.75
47809;BME280;33573;38.790;-77.084;2024-01-10T02:57:29;98335.88;;;18.81;30.75
47809;BME280;33573;38.790;-77.084;2024-01-10T02:59:59;98310.45;;;18.56;30.80
47809;BME280;33573;38.790;-77.084;2024-01-10T03:02:23;98317.40;;;18.58;30.83
47809;BME280;33573;38.790;-77.084;2024-01-10T03:04:49;98320.20;;;18.73;30.87
47809;BME280;33573;38.790;-77.084;2024-01-10T03:07:17;98322.04;;;18.54;30.84
47809;BME280;33573;38.790;-77.084;2024-01-10T03:09:40;98317.90;;;18.74;30.88
47809;BME280;33573;38.790;-77.084;2024-01-10T03:12:09;98310.47;;;18.74;30.86
47809;BME280;33573;38.790;-77.084;2024-01-10T03:14:33;98306.25;;;18.73;30.86
47809;BME280;33573;38.790;-77.084;2024-01-10T03:16:56;98313.46;;;18.47;30.90
47809;BME280;33573;38.790;-77.084;2024-01-10T03:19:21;98328.32;;;18.48;30.87
47809;BME280;33573;38.790;-77.084;2024-01-10T03:21:46;98314.47;;;18.19;30.96
47809;BME280;33573;38.790;-77.084;2024-01-10T03:24:07;98302.91;;;18.23;30.90
47809;BME280;33573;38.790;-77.084;2024-01-10T03:26:38;98301.71;;;18.53;30.86
47809;BME280;33573;38.790;-77.084;2024-01-10T03:29:03;98300.72;;;18.78;30.87
47809;BME280;33573;38.790;-77.084;2024-01-10T03:31:23;98302.07;;;18.49;31.04
47809;BME280;33573;38.790;-77.084;2024-01-10T03:33:47;98300.24;;;18.64;31.15
47809;BME280;33573;38.790;-77.084;2024-01-10T03:36:22;98301.73;;;18.37;31.25
47809;BME280;33573;38.790;-77.084;2024-01-10T03:38:44;98297.40;;;18.30;31.31
47809;BME280;33573;38.790;-77.084;2024-01-10T03:41:04;98293.01;;;18.57;31.27
47809;BME280;33573;38.790;-77.084;2024-01-10T03:43:38;98293.51;;;18.03;31.49
47809;BME280;33573;38.790;-77.084;2024-01-10T03:46:00;98288.03;;;18.27;31.37
47809;BME280;33573;38.790;-77.084;2024-01-10T03:48:25;98281.30;;;18.31;31.39
47809;BME280;33573;38.790;-77.084;2024-01-10T03:50:51;98280.94;;;18.00;31.37
47809;BME280;33573;38.790;-77.084;2024-01-10T03:53:16;98277.00;;;18.46;31.47
47809;BME280;33573;38.790;-77.084;2024-01-10T03:55:36;98275.70;;;18.18;31.50
47809;BME280;33573;38.790;-77.084;2024-01-10T03:58:11;98280.18;;;17.96;31.67
47809;BME280;33573;38.790;-77.084;2024-01-10T04:00:32;98287.97;;;17.93;31.58
47809;BME280;33573;38.790;-77.084;2024-01-10T04:02:58;98276.12;;;18.45;31.74
47809;BME280;33573;38.790;-77.084;2024-01-10T04:05:27;98263.17;;;18.18;31.83
47809;BME280;33573;38.790;-77.084;2024-01-10T04:07:49;98234.88;;;17.98;31.96
47809;BME280;33573;38.790;-77.084;2024-01-10T04:10:09;98248.44;;;18.21;31.76
47809;BME280;33573;38.790;-77.084;2024-01-10T04:12:49;98259.53;;;18.21;31.76
47809;BME280;33573;38.790;-77.084;2024-01-10T04:15:06;98255.49;;;18.45;31.70
47809;BME280;33573;38.790;-77.084;2024-01-10T04:17:25;98239.73;;;18.20;31.64
47809;BME280;33573;38.790;-77.084;2024-01-10T04:19:51;98235.29;;;18.37;31.70
47809;BME280;33573;38.790;-77.084;2024-01-10T04:22:21;98231.76;;;17.89;31.72
47809;BME280;33573;38.790;-77.084;2024-01-10T04:24:42;98233.53;;;18.09;31.69
47809;BME280;33573;38.790;-77.084;2024-01-10T04:27:07;98238.60;;;18.30;31.71
47809;BME280;33573;38.790;-77.084;2024-01-10T04:29:33;98234.56;;;18.27;31.71
47809;BME280;33573;38.790;-77.084;2024-01-10T04:32:04;98235.92;;;18.06;31.72
47809;BME280;33573;38.790;-77.084;2024-01-10T04:34:33;98236.59;;;18.29;31.68
47809;BME280;33573;38.790;-77.084;2024-01-10T04:36:55;98240.33;;;18.04;31.60
47809;BME280;33573;38.790;-77.084;2024-01-10T04:39:19;98242.54;;;18.31;31.73
47809;BME280;33573;38.790;-77.084;2024-01-10T04:41:40;98253.65;;;18.05;31.85
47809;BME280;33573;38.790;-77.084;2024-01-10T04:44:10;98258.23;;;18.25;31.85
47809;BME280;33573;38.790;-77.084;2024-01-10T04:46:36;98260.81;;;18.31;31.73
47809;BME280;33573;38.790;-77.084;2024-01-10T04:49:05;98268.21;;;18.06;31.84
47809;BME280;33573;38.790;-77.084;2024-01-10T04:51:21;98269.56;;;18.07;31.76
47809;BME280;33573;38.790;-77.084;2024-01-10T04:53:52;98278.97;;;17.98;31.93
47809;BME280;33573;38.790;-77.084;2024-01-10T04:56:22;98282.90;;;18.17;32.00
47809;BME280;33573;38.790;-77.084;2024-01-10T04:58:38;98282.06;;;18.16;31.84
47809;BME280;33573;38.790;-77.084;2024-01-10T05:01:03;98294.05;;;17.91;31.91
47809;BME280;33573;38.790;-77.084;2024-01-10T05:03:29;98296.71;;;18.10;31.98
47809;BME280;33573;38.790;-77.084;2024-01-10T05:05:54;98302.97;;;18.12;31.90
47809;BME280;33573;38.790;-77.084;2024-01-10T05:08:19;98304.79;;;18.34;31.85
47809;BME280;33573;38.790;-77.084;2024-01-10T05:10:45;98302.49;;;18.13;31.78
47809;BME280;33573;38.790;-77.084;2024-01-10T05:13:15;98298.31;;;18.16;31.62
47809;BME280;33573;38.790;-77.084;2024-01-10T05:15:36;98299.80;;;17.89;31.71
47809;BME280;33573;38.790;-77.084;2024-01-10T05:20:27;98305.29;;;18.11;31.72
47809;BME280;33573;38.790;-77.084;2024-01-10T05:22:52;98306.53;;;18.10;31.63
47809;BME280;33573;38.790;-77.084;2024-01-10T05:25:22;98306.44;;;18.05;31.78
47809;BME280;33573;38.790;-77.084;2024-01-10T05:27:48;98304.93;;;17.77;31.70
47809;BME280;33573;38.790;-77.084;2024-01-10T05:30:09;98306.52;;;17.99;31.73
47809;BME280;33573;38.790;-77.084;2024-01-10T05:32:34;98311.80;;;17.90;31.78
47809;BME280;33573;38.790;-77.084;2024-01-10T05:34:59;98312.39;;;17.68;31.78
47809;BME280;33573;38.790;-77.084;2024-01-10T05:37:25;98319.18;;;17.92;31.71
47809;BME280;33573;38.790;-77.084;2024-01-10T05:39:59;98323.51;;;17.91;31.66
47809;BME280;33573;38.790;-77.084;2024-01-10T05:42:16;98328.37;;;17.93;31.64
47809;BME280;33573;38.790;-77.084;2024-01-10T05:44:47;98329.48;;;17.93;31.71
47809;BME280;33573;38.790;-77.084;2024-01-10T05:47:06;98338.73;;;17.96;31.53
47809;BME280;33573;38.790;-77.084;2024-01-10T05:49:37;98337.71;;;17.90;31.65
47809;BME280;33573;38.790;-77.084;2024-01-10T05:51:57;98335.16;;;17.85;31.66
47809;BME280;33573;38.790;-77.084;2024-01-10T05:54:28;98335.65;;;17.86;31.63
47809;BME280;33573;38.790;-77.084;2024-01-10T05:56:48;98330.13;;;17.79;31.69
47809;BME280;33573;38.790;-77.084;2024-01-10T05:59:14;98333.48;;;17.85;31.58
47809;BME280;33573;38.790;-77.084;2024-01-10T06:01:39;98342.42;;;17.76;31.74
47809;BME280;33573;38.790;-77.084;2024-01-10T06:04:09;98353.30;;;17.81;31.64
47809;BME280;33573;38.790;-77.084;2024-01-10T06:06:30;98352.16;;;17.73;31.68
47809;BME280;33573;38.790;-77.084;2024-01-10T06:08:55;98353.52;;;17.98;31.73
47809;BME280;33573;38.790;-77.084;2024-01-10T06:11:21;98359.09;;;17.76;31.66
47809;BME280;33573;38.790;-77.084;2024-01-10T06:13:46;98355.91;;;17.77;31.57
47809;BME280;33573;38.790;-77.084;2024-01-10T06:16:12;98358.96;;;17.80;31.56
47809;BME280;33573;38.790;-77.084;2024-01-10T06:18:37;98364.02;;;18.06;31.50
47809;BME280;33573;38.790;-77.084;2024-01-10T06:21:08;98363.52;;;17.83;31.52
47809;BME280;33573;38.790;-77.084;2024-01-10T06:23:28;98368.62;;;17.87;31.43
47809;BME280;33573;38.790;-77.084;2024-01-10T06:25:58;98371.32;;;18.28;31.58
47809;BME280;33573;38.790;-77.084;2024-01-10T06:28:19;98367.27;;;17.78;31.59
47809;BME280;33573;38.790;-77.084;2024-01-10T06:30:44;98371.37;;;18.00;31.56
47809;BME280;33573;38.790;-77.084;2024-01-10T06:33:10;98383.25;;;17.74;31.58
47809;BME280;33573;38.790;-77.084;2024-01-10T06:35:35;98391.61;;;17.58;31.73
47809;BME280;33573;38.790;-77.084;2024-01-10T06:38:01;98391.05;;;17.55;31.83
47809;BME280;33573;38.790;-77.084;2024-01-10T06:40:31;98388.77;;;17.51;31.77
47809;BME280;33573;38.790;-77.084;2024-01-10T06:42:56;98393.07;;;17.49;31.81
47809;BME280;33573;38.790;-77.084;2024-01-10T06:45:26;98397.44;;;17.52;31.75
47809;BME280;33573;38.790;-77.084;2024-01-10T06:47:42;98403.93;;;17.53;31.72
47809;BME280;33573;38.790;-77.084;2024-01-10T06:50:08;98403.98;;;17.50;31.65
47809;BME280;33573;38.790;-77.084;2024-01-10T06:52:33;98402.22;;;17.74;31.69
47809;BME280;33573;38.790;-77.084;2024-01-10T06:55:05;98401.44;;;17.96;31.72
47809;BME280;33573;38.790;-77.084;2024-01-10T06:57:38;98403.83;;;17.46;31.69
47809;BME280;33573;38.790;-77.084;2024-01-10T07:00:05;98406.56;;;17.67;31.78
47809;BME280;33573;38.790;-77.084;2024-01-10T07:02:15;98404.25;;;17.43;31.75
47809;BME280;33573;38.790;-77.084;2024-01-10T07:04:45;98409.54;;;17.42;31.83
47809;BME280;33573;38.790;-77.084;2024-01-10T07:07:11;98407.83;;;17.42;31.74
47809;BME280;33573;38.790;-77.084;2024-01-10T07:09:40;98407.76;;;17.40;31.71
47809;BME280;33573;38.790;-77.084;2024-01-10T07:11:57;98416.79;;;17.40;31.72
47809;BME280;33573;38.790;-77.084;2024-01-10T07:14:27;98416.44;;;17.44;31.58
47809;BME280;33573;38.790;-77.084;2024-01-10T07:16:48;98414.94;;;17.52;31.74
47809;BME280;33573;38.790;-77.084;2024-01-10T07:19:13;98412.25;;;17.53;31.72
47809;BME280;33573;38.790;-77.084;2024-01-10T07:21:39;98416.85;;;17.58;31.67
47809;BME280;33573;38.790;-77.084;2024-01-10T07:24:04;98421.42;;;17.57;31.63
47809;BME280;33573;38.790;-77.084;2024-01-10T07:26:35;98421.31;;;17.54;31.70
47809;BME280;33573;38.790;-77.084;2024-01-10T07:28:55;98429.77;;;17.30;31.65
47809;BME280;33573;38.790;-77.084;2024-01-10T07:31:20;98435.76;;;17.35;31.55
47809;BME280;33573;38.790;-77.084;2024-01-10T07:33:46;98436.22;;;17.31;31.63
47809;BME280;33573;38.790;-77.084;2024-01-10T07:36:11;98437.44;;;17.50;31.70
47809;BME280;33573;38.790;-77.084;2024-01-10T07:38:36;98444.54;;;17.52;31.59
47809;BME280;33573;38.790;-77.084;2024-01-10T07:41:02;98447.25;;;17.24;31.68
47809;BME280;33573;38.790;-77.084;2024-01-10T07:43:32;98449.57;;;17.28;31.63
47809;BME280;33573;38.790;-77.084;2024-01-10T07:46:02;98448.31;;;17.24;31.58
47809;BME280;33573;38.790;-77.084;2024-01-10T07:48:23;98452.10;;;17.20;31.66
47809;BME280;33573;38.790;-77.084;2024-01-10T07:50:49;98457.74;;;17.19;31.62
47809;BME280;33573;38.790;-77.084;2024-01-10T07:53:09;98465.25;;;17.63;31.65
47809;BME280;33573;38.790;-77.084;2024-01-10T07:55:35;98471.25;;;17.20;31.56
47809;BME280;33573;38.790;-77.084;2024-01-10T07:58:05;98475.08;;;17.49;31.45
47809;BME280;33573;38.790;-77.084;2024-01-10T08:00:31;98483.61;;;17.25;31.44
47809;BME280;33573;38.790;-77.084;2024-01-10T08:02:51;98488.48;;;17.45;31.48
47809;BME280;33573;38.790;-77.084;2024-01-10T08:05:16;98500.87;;;17.26;31.37
47809;BME280;33573;38.790;-77.084;2024-01-10T08:07:42;98509.40;;;17.54;31.32
47809;BME280;33573;38.790;-77.084;2024-01-10T08:10:09;98514.74;;;17.50;31.30
47809;BME280;33573;38.790;-77.084;2024-01-10T08:12:33;98518.12;;;17.22;31.33
47809;BME280;33573;38.790;-77.084;2024-01-10T08:14:58;98514.99;;;17.45;31.35
47809;BME280;33573;38.790;-77.084;2024-01-10T08:17:23;98516.32;;;17.20;31.35
47809;BME280;33573;38.790;-77.084;2024-01-10T08:19:49;98515.71;;;17.45;31.31
47809;BME280;33573;38.790;-77.084;2024-01-10T08:22:24;98518.95;;;17.38;31.35
47809;BME280;33573;38.790;-77.084;2024-01-10T08:24:40;98515.79;;;17.37;31.36
47809;BME280;33573;38.790;-77.084;2024-01-10T08:27:10;98515.36;;;17.08;31.40
47809;BME280;33573;38.790;-77.084;2024-01-10T08:29:31;98515.72;;;17.16;31.31
47809;BME280;33573;38.790;-77.084;2024-01-10T08:31:56;98516.83;;;17.42;31.27
47809;BME280;33573;38.790;-77.084;2024-01-10T08:34:27;98509.42;;;17.38;31.27
47809;BME280;33573;38.790;-77.084;2024-01-10T08:36:47;98509.39;;;17.16;31.23
47809;BME280;33573;38.790;-77.084;2024-01-10T08:41:38;98517.32;;;17.46;31.13
47809;BME280;33573;38.790;-77.084;2024-01-10T08:44:04;98529.86;;;17.21;31.12
47809;BME280;33573;38.790;-77.084;2024-01-10T08:46:29;98540.75;;;17.24;31.08
47809;BME280;33573;38.790;-77.084;2024-01-10T08:48:59;98541.69;;;17.40;31.13
47809;BME280;33573;38.790;-77.084;2024-01-10T08:51:20;98543.84;;;17.60;31.20
47809;BME280;33573;38.790;-77.084;2024-01-10T08:53:45;98554.45;;;17.14;31.15
47809;BME280;33573;38.790;-77.084;2024-01-10T08:56:16;98565.09;;;17.15;31.14
47809;BME280;33573;38.790;-77.084;2024-01-10T08:58:41;98570.19;;;17.14;31.14
47809;BME280;33573;38.790;-77.084;2024-01-10T09:01:07;98571.18;;;17.40;31.09
47809;BME280;33573;38.790;-77.084;2024-01-10T09:03:27;98579.70;;;17.38;31.11
47809;BME280;33573;38.790;-77.084;2024-01-10T09:05:52;98587.66;;;17.56;31.16
47809;BME280;33573;38.790;-77.084;2024-01-10T09:08:23;98590.83;;;17.33;31.17
47809;BME280;33573;38.790;-77.084;2024-01-10T09:10:43;98593.23;;;17.37;31.12
47809;BME280;33573;38.790;-77.084;2024-01-10T09:13:09;98587.62;;;17.39;31.06
47809;BME280;33573;38.790;-77.084;2024-01-10T09:15:34;98591.16;;;17.25;30.96
47809;BME280;33573;38.790;-77.084;2024-01-10T09:18:00;98604.47;;;17.44;30.99
47809;BME280;33573;38.790;-77.084;2024-01-10T09:20:30;98608.28;;;17.40;31.04
47809;BME280;33573;38.790;-77.084;2024-01-10T09:22:50;98608.39;;;17.54;31.17
47809;BME280;33573;38.790;-77.084;2024-01-10T09:25:16;98607.75;;;17.35;31.08
47809;BME280;33573;38.790;-77.084;2024-01-10T09:27:41;98609.51;;;17.39;30.99
47809;BME280;33573;38.790;-77.084;2024-01-10T09:30:08;98612.40;;;17.55;31.09
47809;BME280;33573;38.790;-77.084;2024-01-10T09:32:37;98614.66;;;17.27;31.11
47809;BME280;33573;38.790;-77.084;2024-01-10T09:35:04;98623.90;;;17.51;31.09
47809;BME280;33573;38.790;-77.084;2024-01-10T09:37:23;98630.45;;;17.47;31.12
47809;BME280;33573;38.790;-77.084;2024-01-10T09:39:54;98636.38;;;17.42;31.20
47809;BME280;33573;38.790;-77.084;2024-01-10T09:42:19;98636.48;;;17.22;31.12
47809;BME280;33573;38.790;-77.084;2024-01-10T09:44:45;98641.81;;;17.20;31.10
47809;BME280;33573;38.790;-77.084;2024-01-10T09:47:05;98647.04;;;17.46;31.04
47809;BME280;33573;38.790;-77.084;2024-01-10T09:49:36;98650.63;;;17.51;30.98
47809;BME280;33573;38.790;-77.084;2024-01-10T09:52:04;98650.24;;;17.47;31.00
47809;BME280;33573;38.790;-77.084;2024-01-10T09:54:28;98652.83;;;17.52;30.95
47809;BME280;33573;38.790;-77.084;2024-01-10T09:56:56;98655.11;;;17.22;31.00
47809;BME280;33573;38.790;-77.084;2024-01-10T09:59:12;98657.51;;;16.94;31.04
47809;BME280;33573;38.790;-77.084;2024-01-10T10:01:38;98662.57;;;17.21;31.01
47809;BME280;33573;38.790;-77.084;2024-01-10T10:04:03;98666.31;;;17.24;30.94
47809;BME280;33573;38.790;-77.084;2024-01-10T10:06:29;98675.16;;;17.44;30.98
47809;BME280;33573;38.790;-77.084;2024-01-10T10:08:54;98680.42;;;17.47;30.93
47809;BME280;33573;38.790;-77.084;2024-01-10T10:11:19;98689.29;;;16.96;30.96
47809;BME280;33573;38.790;-77.084;2024-01-10T10:13:50;98694.70;;;17.46;30.92
47809;BME280;33573;38.790;-77.084;2024-01-10T10:16:10;98703.28;;;17.22;30.81
47809;BME280;33573;38.790;-77.084;2024-01-10T10:18:45;98703.76;;;17.47;30.79
47809;BME280;33573;38.790;-77.084;2024-01-10T10:21:08;98709.28;;;17.35;30.85
47809;BME280;33573;38.790;-77.084;2024-01-10T10:23:32;98711.24;;;17.08;30.91
47809;BME280;33573;38.790;-77.084;2024-01-10T10:28:18;98721.05;;;17.27;30.89
47809;BME280;33573;38.790;-77.084;2024-01-10T10:30:48;98724.43;;;17.00;30.89
47809;BME280;33573;38.790;-77.084;2024-01-10T10:33:09;98728.46;;;17.37;30.78
47809;BME280;33573;38.790;-77.084;2024-01-10T10:35:34;98733.90;;;17.32;30.52
47809;BME280;33573;38.790;-77.084;2024-01-10T10:38:00;98730.68;;;17.43;30.31
47809;BME280;33573;38.790;-77.084;2024-01-10T10:40:30;98733.93;;;17.30;30.12
47809;BME280;33573;38.790;-77.084;2024-01-10T10:42:55;98744.83;;;17.41;30.09
47809;BME280;33573;38.790;-77.084;2024-01-10T10:45:17;98756.15;;;17.49;29.97
47809;BME280;33573;38.790;-77.084;2024-01-10T10:47:46;98762.11;;;17.86;29.92
47809;BME280;33573;38.790;-77.084;2024-01-10T10:50:18;98768.64;;;18.18;29.87
47809;BME280;33573;38.790;-77.084;2024-01-10T10:52:33;98773.30;;;17.82;29.82
47809;BME280;33573;38.790;-77.084;2024-01-10T10:55:03;98779.31;;;17.83;30.14
47809;BME280;33573;38.790;-77.084;2024-01-10T10:57:25;98784.09;;;17.51;30.27
47809;BME280;33573;38.790;-77.084;2024-01-10T10:59:49;98790.71;;;17.46;30.33
47809;BME280;33573;38.790;-77.084;2024-01-10T11:02:20;98800.92;;;17.60;29.97
47809;BME280;33573;38.790;-77.084;2024-01-10T11:04:48;98800.94;;;17.55;29.98
47809;BME280;33573;38.790;-77.084;2024-01-10T11:07:10;98799.48;;;17.62;29.96
47809;BME280;33573;38.790;-77.084;2024-01-10T11:09:30;98792.59;;;17.93;29.91
47809;BME280;33573;38.790;-77.084;2024-01-10T11:12:13;98799.63;;;17.63;29.97
47809;BME280;33573;38.790;-77.084;2024-01-10T11:14:29;98799.58;;;17.82;30.11
47809;BME280;33573;38.790;-77.084;2024-01-10T11:17:01;98803.95;;;17.51;30.24
47809;BME280;33573;38.790;-77.084;2024-01-10T11:19:33;98814.07;;;17.46;30.21
47809;BME280;33573;38.790;-77.084;2024-01-10T11:21:46;98812.22;;;17.53;30.09
47809;BME280;33573;38.790;-77.084;2024-01-10T11:24:08;98818.94;;;17.68;30.18
47809;BME280;33573;38.790;-77.084;2024-01-10T11:28:54;98841.97;;;17.93;29.88
47809;BME280;33573;38.790;-77.084;2024-01-10T11:31:27;98854.04;;;17.72;29.93
47809;BME280;33573;38.790;-77.084;2024-01-10T11:33:44;98860.42;;;17.90;29.94
47809;BME280;33573;38.790;-77.084;2024-01-10T11:36:15;98870.11;;;17.79;30.17
47809;BME280;33573;38.790;-77.084;2024-01-10T11:38:43;98878.93;;;17.64;30.00
47809;BME280;33573;38.790;-77.084;2024-01-10T11:41:01;98889.06;;;17.81;30.10
47809;BME280;33573;38.790;-77.084;2024-01-10T11:43:31;98895.93;;;17.47;30.27
47809;BME280;33573;38.790;-77.084;2024-01-10T11:45:57;98900.09;;;17.41;30.29
47809;BME280;33573;38.790;-77.084;2024-01-10T11:50:48;98896.18;;;17.64;30.04
47809;BME280;33573;38.790;-77.084;2024-01-10T11:53:13;98896.13;;;17.78;29.96
47809;BME280;33573;38.790;-77.084;2024-01-10T11:55:46;98897.56;;;17.58;30.02
47809;BME280;33573;38.790;-77.084;2024-01-10T11:58:08;98898.96;;;17.35;30.06
47809;BME280;33573;38.790;-77.084;2024-01-10T12:00:30;98902.27;;;17.51;30.20
47809;BME280;33573;38.790;-77.084;2024-01-10T12:02:59;98909.12;;;17.73;30.25
47809;BME280;33573;38.790;-77.084;2024-01-10T12:05:20;98913.58;;;17.44;30.23
47809;BME280;33573;38.790;-77.084;2024-01-10T12:07:50;98920.93;;;17.71;30.27
47809;BME280;33573;38.790;-77.084;2024-01-10T12:10:07;98932.30;;;17.46;30.33
47809;BME280;33573;38.790;-77.084;2024-01-10T12:12:37;98939.58;;;17.71;29.13
47809;BME280;33573;38.790;-77.084;2024-01-10T12:15:03;98941.78;;;17.47;29.93
47809;BME280;33573;38.790;-77.084;2024-01-10T12:17:27;98950.38;;;17.49;30.01
47809;BME280;33573;38.790;-77.084;2024-01-10T12:19:53;98960.48;;;17.38;30.06
47809;BME280;33573;38.790;-77.084;2024-01-10T12:22:16;98969.27;;;17.38;29.86
47809;BME280;33573;38.790;-77.084;2024-01-10T12:24:43;98977.60;;;17.32;29.75
47809;BME280;33573;38.790;-77.084;2024-01-10T12:27:04;99009.11;;;17.33;29.87
47809;BME280;33573;38.790;-77.084;2024-01-10T12:29:29;99001.10;;;17.45;29.76
47809;BME280;33573;38.790;-77.084;2024-01-10T12:32:00;99000.00;;;17.52;29.73
47809;BME280;33573;38.790;-77.084;2024-01-10T12:34:25;99015.86;;;17.42;29.85
47809;BME280;33573;38.790;-77.084;2024-01-10T12:36:46;99034.23;;;17.26;29.76
47809;BME280;33573;38.790;-77.084;2024-01-10T12:39:12;99036.49;;;17.49;29.70
47809;BME280;33573;38.790;-77.084;2024-01-10T12:41:42;99044.21;;;17.19;29.72
47809;BME280;33573;38.790;-77.084;2024-01-10T12:44:07;99051.29;;;17.70;29.69
47809;BME280;33573;38.790;-77.084;2024-01-10T12:46:33;99068.16;;;17.41;29.77
47809;BME280;33573;38.790;-77.084;2024-01-10T12:48:58;99078.38;;;17.21;29.62